createdAt,value
2022-12-11T00:00:46.923Z,8.97
2022-12-11T00:03:16.428Z,9.18
2022-12-11T00:05:43.336Z,8.82
2022-12-11T00:08:10.115Z,8.37
2022-12-11T00:10:38.024Z,9.05
2022-12-11T00:13:05.271Z,8.84
2022-12-11T00:15:32.005Z,8.70
2022-12-11T00:17:58.634Z,8.21
2022-12-11T00:20:25.361Z,8.56
2022-12-11T00:22:51.984Z,8.76
2022-12-11T00:25:18.744Z,8.66
2022-12-11T00:27:46.727Z,8.69
2022-12-11T00:30:14.298Z,8.79
2022-12-11T00:32:41.148Z,8.94
2022-12-11T00:35:08.685Z,9.09
2022-12-11T00:37:37.020Z,9.41
2022-12-11T00:40:03.996Z,9.27
2022-12-11T00:42:30.582Z,9.39
2022-12-11T00:44:57.223Z,8.80
2022-12-11T00:47:23.901Z,8.52
2022-12-11T00:49:50.561Z,8.80
2022-12-11T00:52:18.032Z,9.00
2022-12-11T00:54:45.136Z,8.94
2022-12-11T00:57:11.785Z,8.91
2022-12-11T00:59:38.607Z,8.69
2022-12-11T01:02:05.211Z,8.56
2022-12-11T01:04:31.898Z,8.79
2022-12-11T01:06:58.561Z,8.82
2022-12-11T01:09:48.663Z,8.94
2022-12-11T01:12:15.291Z,9.20
2022-12-11T01:14:42.011Z,8.48
2022-12-11T01:17:08.649Z,8.70
2022-12-11T01:19:35.221Z,8.80
2022-12-11T01:22:01.844Z,8.90
2022-12-11T01:24:28.559Z,8.58
2022-12-11T01:26:55.176Z,9.07
2022-12-11T01:29:21.795Z,9.08
2022-12-11T01:31:48.480Z,8.77
2022-12-11T01:34:15.053Z,8.75
2022-12-11T01:36:41.706Z,8.84
2022-12-11T01:39:08.406Z,8.80
2022-12-11T01:41:35.040Z,8.86
2022-12-11T01:44:08.591Z,9.12
2022-12-11T01:46:36.454Z,9.09
2022-12-11T01:49:05.933Z,8.48
2022-12-11T01:51:33.571Z,9.05
2022-12-11T01:54:02.294Z,9.29
2022-12-11T01:56:29.661Z,9.46
2022-12-11T01:58:57.657Z,9.79
2022-12-11T02:02:22.850Z,10.25
2022-12-11T02:04:49.602Z,10.45
2022-12-11T02:07:16.358Z,10.55
2022-12-11T02:09:44.455Z,10.57
2022-12-11T02:12:29.166Z,10.55
2022-12-11T02:15:17.465Z,10.41
2022-12-11T02:18:15.356Z,10.54
2022-12-11T02:21:01.131Z,10.75
2022-12-11T02:23:32.515Z,10.56
2022-12-11T02:26:21.181Z,10.52
2022-12-11T02:28:58.534Z,10.65
2022-12-11T02:31:55.962Z,10.68
2022-12-11T02:34:42.163Z,10.49
2022-12-11T02:37:12.509Z,10.69
2022-12-11T02:39:39.905Z,10.57
2022-12-11T02:42:06.497Z,10.66
2022-12-11T02:44:33.738Z,10.48
2022-12-11T02:47:00.453Z,10.36
2022-12-11T02:49:27.165Z,10.49
2022-12-11T02:51:53.739Z,10.87
2022-12-11T02:54:22.775Z,10.95
2022-12-11T02:57:06.615Z,11.32
2022-12-11T02:59:38.217Z,11.39
2022-12-11T03:02:04.976Z,11.03
2022-12-11T03:04:31.731Z,11.32
2022-12-11T03:07:00.025Z,11.33
2022-12-11T03:09:27.870Z,10.96
2022-12-11T03:11:54.472Z,10.98
2022-12-11T03:14:21.097Z,11.02
2022-12-11T03:17:14.434Z,11.01
2022-12-11T03:20:06.885Z,10.86
2022-12-11T03:22:39.274Z,11.02
2022-12-11T03:25:26.047Z,11.00
2022-12-11T03:28:11.464Z,11.05
2022-12-11T03:30:38.156Z,11.43
2022-12-11T03:33:06.944Z,11.32
2022-12-11T03:35:36.089Z,11.13
2022-12-11T03:38:05.472Z,11.46
2022-12-11T03:40:33.285Z,11.17
2022-12-11T03:42:59.913Z,10.84
2022-12-11T03:45:26.521Z,10.97
2022-12-11T03:47:53.231Z,10.94
2022-12-11T03:50:20.032Z,11.11
2022-12-11T03:52:46.746Z,11.04
2022-12-11T03:55:14.256Z,10.96
2022-12-11T03:57:40.949Z,11.02
2022-12-11T04:00:14.613Z,11.18
2022-12-11T04:02:41.552Z,11.29
2022-12-11T04:05:08.849Z,11.21
2022-12-11T04:07:35.761Z,11.03
2022-12-11T04:10:02.450Z,10.86
2022-12-11T04:12:29.122Z,11.00
2022-12-11T04:15:01.914Z,11.13
2022-12-11T04:17:50.889Z,11.02
2022-12-11T04:20:36.320Z,11.13
2022-12-11T04:23:32.349Z,10.86
2022-12-11T04:26:14.825Z,10.76
2022-12-11T04:28:42.216Z,10.46
2022-12-11T04:31:16.733Z,10.43
2022-12-11T04:33:43.449Z,10.66
2022-12-11T04:36:10.349Z,10.72
2022-12-11T04:38:37.131Z,10.53
2022-12-11T04:41:10.425Z,10.53
2022-12-11T04:43:37.133Z,10.33
2022-12-11T04:46:29.916Z,10.57
2022-12-11T04:48:57.914Z,10.79
2022-12-11T04:51:24.919Z,10.64
2022-12-11T04:53:51.595Z,10.56
2022-12-11T04:56:18.242Z,10.67
2022-12-11T04:58:45.046Z,10.84
2022-12-11T05:01:19.867Z,11.27
2022-12-11T05:03:46.899Z,11.45
2022-12-11T05:06:13.732Z,11.54
2022-12-11T05:08:41.233Z,11.74
2022-12-11T05:11:10.152Z,11.53
2022-12-11T05:13:36.733Z,11.69
2022-12-11T05:16:05.021Z,11.50
2022-12-11T05:18:31.700Z,11.56
2022-12-11T05:20:59.764Z,11.44
2022-12-11T05:23:26.454Z,11.14
2022-12-11T05:25:57.542Z,11.30
2022-12-11T05:28:25.001Z,11.17
2022-12-11T05:31:09.111Z,11.45
2022-12-11T05:33:35.803Z,10.97
2022-12-11T05:36:02.408Z,10.89
2022-12-11T05:38:29.041Z,10.47
2022-12-11T05:40:59.566Z,10.42
2022-12-11T05:43:27.200Z,10.21
2022-12-11T05:45:54.226Z,10.16
2022-12-11T05:48:21.110Z,9.80
2022-12-11T05:51:00.622Z,9.85
2022-12-11T05:53:27.518Z,9.82
2022-12-11T05:55:54.100Z,10.20
2022-12-11T05:58:20.818Z,10.50
2022-12-11T06:00:47.953Z,10.92
2022-12-11T06:03:14.661Z,10.77
2022-12-11T06:05:41.781Z,10.41
2022-12-11T06:08:08.564Z,10.32
2022-12-11T06:10:35.304Z,10.34
2022-12-11T06:13:01.951Z,10.28
2022-12-11T06:15:28.589Z,10.36
2022-12-11T06:17:55.168Z,10.42
2022-12-11T06:20:21.842Z,10.38
2022-12-11T06:22:48.514Z,10.49
2022-12-11T06:25:15.101Z,10.37
2022-12-11T06:27:41.759Z,10.33
2022-12-11T06:30:09.165Z,10.09
2022-12-11T06:32:35.818Z,10.14
2022-12-11T06:35:02.431Z,10.25
2022-12-11T06:37:29.166Z,10.33
2022-12-11T06:39:55.727Z,10.24
2022-12-11T06:42:22.381Z,10.54
2022-12-11T06:44:49.138Z,10.58
2022-12-11T06:47:15.735Z,10.49
2022-12-11T06:49:42.460Z,10.65
2022-12-11T06:52:12.455Z,10.83
2022-12-11T06:54:41.708Z,10.93
2022-12-11T06:57:09.394Z,10.87
2022-12-11T06:59:36.084Z,11.31
2022-12-11T07:02:03.027Z,11.59
2022-12-11T07:04:30.664Z,11.61
2022-12-11T07:06:57.538Z,11.43
2022-12-11T07:09:24.663Z,11.22
2022-12-11T07:11:51.786Z,11.07
2022-12-11T07:14:18.501Z,11.06
2022-12-11T07:16:45.395Z,11.26
2022-12-11T07:19:12.110Z,11.53
2022-12-11T07:21:38.761Z,11.60
2022-12-11T07:24:05.784Z,11.57
2022-12-11T07:26:32.636Z,11.63
2022-12-11T07:28:59.538Z,11.29
2022-12-11T07:31:27.193Z,11.35
2022-12-11T07:33:57.805Z,11.20
2022-12-11T07:36:24.870Z,11.34
2022-12-11T07:38:51.728Z,10.68
2022-12-11T07:41:18.480Z,11.38
2022-12-11T07:43:45.565Z,11.09
2022-12-11T07:46:16.880Z,11.35
2022-12-11T07:48:44.927Z,11.46
2022-12-11T07:51:16.485Z,11.71
2022-12-11T07:53:47.241Z,11.73
2022-12-11T07:56:14.265Z,11.65
2022-12-11T07:58:40.895Z,11.37
2022-12-11T08:01:18.412Z,11.33
2022-12-11T08:03:45.147Z,11.37
2022-12-11T08:06:11.818Z,11.78
2022-12-11T08:08:38.905Z,11.46
2022-12-11T08:11:06.605Z,11.68
2022-12-11T08:13:33.454Z,11.99
2022-12-11T08:16:02.849Z,11.98
2022-12-11T08:18:30.455Z,11.80
2022-12-11T08:20:57.111Z,11.89
2022-12-11T08:23:23.753Z,11.77
2022-12-11T08:25:50.403Z,12.05
2022-12-11T08:28:17.041Z,11.77
2022-12-11T08:30:43.690Z,11.61
2022-12-11T08:33:10.285Z,11.96
2022-12-11T08:35:39.800Z,11.96
2022-12-11T08:38:06.446Z,11.84
2022-12-11T08:40:33.069Z,11.79
2022-12-11T08:42:59.750Z,11.79
2022-12-11T08:45:27.170Z,11.72
2022-12-11T08:47:54.083Z,11.74
2022-12-11T08:50:20.767Z,11.54
2022-12-11T08:52:47.491Z,11.61
2022-12-11T08:55:14.302Z,11.77
2022-12-11T08:57:41.131Z,12.09
2022-12-11T09:00:09.270Z,11.91
2022-12-11T09:02:35.994Z,12.22
2022-12-11T09:05:02.787Z,12.11
2022-12-11T09:07:29.533Z,12.26
2022-12-11T09:09:56.105Z,11.82
2022-12-11T09:12:23.112Z,11.84
2022-12-11T09:14:49.841Z,11.77
2022-12-11T09:17:16.565Z,11.69
2022-12-11T09:19:43.165Z,11.78
2022-12-11T09:22:11.269Z,12.17
2022-12-11T09:24:38.396Z,12.33
2022-12-11T09:27:05.500Z,12.09
2022-12-11T09:29:32.609Z,12.32
2022-12-11T09:31:59.178Z,12.40
2022-12-11T09:34:29.240Z,12.53
2022-12-11T09:36:56.378Z,12.60
2022-12-11T09:39:23.047Z,12.71
2022-12-11T09:41:58.181Z,12.68
2022-12-11T09:44:50.575Z,12.87
2022-12-11T09:47:36.181Z,12.71
2022-12-11T09:50:04.904Z,12.81
2022-12-11T09:52:38.535Z,12.71
2022-12-11T09:55:26.097Z,12.71
2022-12-11T09:58:11.468Z,12.76
2022-12-11T10:00:46.701Z,12.61
2022-12-11T10:03:31.914Z,12.51
2022-12-11T10:06:26.264Z,12.42
2022-12-11T10:09:14.706Z,12.57
2022-12-11T10:11:57.118Z,12.88
2022-12-11T10:14:52.169Z,12.71
2022-12-11T10:17:21.484Z,12.77
2022-12-11T10:19:48.179Z,12.98
2022-12-11T10:22:24.697Z,12.94
2022-12-11T10:25:11.612Z,12.81
2022-12-11T10:27:39.135Z,12.90
2022-12-11T10:30:15.056Z,12.81
2022-12-11T10:32:59.701Z,12.84
2022-12-11T10:35:39.770Z,12.91
2022-12-11T10:38:29.516Z,12.96
2022-12-11T10:40:58.596Z,13.03
2022-12-11T10:43:36.184Z,12.83
2022-12-11T10:46:03.431Z,12.81
2022-12-11T10:48:30.106Z,13.00
2022-12-11T10:51:05.516Z,12.78
2022-12-11T10:53:32.641Z,12.78
2022-12-11T10:55:59.842Z,12.45
2022-12-11T10:58:28.647Z,12.83
2022-12-11T11:01:14.490Z,12.98
2022-12-11T11:04:06.748Z,12.89
2022-12-11T11:06:33.496Z,12.79
2022-12-11T11:09:01.282Z,13.13
2022-12-11T11:11:38.240Z,12.88
2022-12-11T11:14:31.287Z,12.40
2022-12-11T11:16:58.036Z,12.57
2022-12-11T11:19:24.656Z,12.58
2022-12-11T11:21:56.660Z,12.81
2022-12-11T11:24:45.390Z,12.78
2022-12-11T11:27:20.279Z,12.77
2022-12-11T11:29:52.832Z,12.81
2022-12-11T11:32:22.673Z,12.70
2022-12-11T11:34:49.425Z,12.69
2022-12-11T11:37:36.223Z,12.69
2022-12-11T11:40:08.448Z,12.79
2022-12-11T11:42:44.186Z,12.56
2022-12-11T11:45:16.773Z,12.25
2022-12-11T11:47:50.992Z,12.38
2022-12-11T11:50:22.552Z,12.42
2022-12-11T11:53:02.860Z,12.43
2022-12-11T11:56:23.289Z,12.50
2022-12-11T11:59:11.439Z,12.58
2022-12-11T12:01:38.039Z,12.47
2022-12-11T12:04:04.921Z,12.47
2022-12-11T12:06:50.856Z,12.56
2022-12-11T12:09:20.781Z,12.28
2022-12-11T12:11:56.588Z,12.30
2022-12-11T12:14:51.994Z,12.21
2022-12-11T12:17:56.059Z,12.19
2022-12-11T12:20:29.065Z,12.14
2022-12-11T12:23:20.606Z,12.36
2022-12-11T12:26:01.846Z,12.55
2022-12-11T12:28:41.468Z,12.62
2022-12-11T12:31:20.751Z,12.77
2022-12-11T12:34:18.377Z,12.80
2022-12-11T12:37:00.939Z,12.87
2022-12-11T12:39:33.581Z,12.97
2022-12-11T12:42:16.284Z,13.13
2022-12-11T12:45:03.939Z,13.14
2022-12-11T12:47:32.550Z,12.97
2022-12-11T12:49:59.168Z,12.74
2022-12-11T12:52:30.811Z,12.75
2022-12-11T12:55:16.503Z,12.89
2022-12-11T12:58:00.337Z,12.80
2022-12-11T13:00:27.097Z,12.58
2022-12-11T13:02:56.080Z,12.53
2022-12-11T13:05:27.193Z,12.30
2022-12-11T13:07:58.352Z,12.47
2022-12-11T13:10:33.364Z,12.15
2022-12-11T13:13:00.805Z,11.69
2022-12-11T13:15:34.949Z,11.40
2022-12-11T13:18:02.365Z,11.34
2022-12-11T13:20:30.901Z,11.31
2022-12-11T13:23:06.832Z,11.29
2022-12-11T13:25:52.452Z,11.46
2022-12-11T13:28:47.969Z,11.42
2022-12-11T13:31:14.595Z,11.39
2022-12-11T13:33:54.925Z,10.98
2022-12-11T13:36:24.603Z,10.84
2022-12-11T13:39:08.901Z,10.62
2022-12-11T13:41:36.457Z,10.39
2022-12-11T13:44:03.242Z,10.23
2022-12-11T13:46:31.920Z,10.37
2022-12-11T13:49:01.110Z,10.20
2022-12-11T13:51:30.255Z,10.11
2022-12-11T13:54:17.799Z,10.09
2022-12-11T13:57:00.696Z,10.20
2022-12-11T13:59:32.785Z,10.17
2022-12-11T14:02:01.609Z,10.10
2022-12-11T14:04:28.317Z,10.04
2022-12-11T14:06:56.072Z,9.87
2022-12-11T14:09:24.044Z,9.88
2022-12-11T14:11:56.503Z,9.83
2022-12-11T14:14:40.719Z,9.72
2022-12-11T14:17:12.614Z,9.92
2022-12-11T14:19:39.273Z,10.13
2022-12-11T14:22:08.025Z,10.35
2022-12-11T14:24:34.712Z,10.43
2022-12-11T14:27:01.419Z,10.22
2022-12-11T14:29:30.424Z,10.22
2022-12-11T14:32:00.088Z,10.30
2022-12-11T14:34:38.549Z,10.11
2022-12-11T14:37:06.291Z,10.05
2022-12-11T14:39:54.470Z,10.10
2022-12-11T14:42:23.405Z,9.99
2022-12-11T14:44:50.976Z,10.01
2022-12-11T14:47:23.041Z,9.98
2022-12-11T14:50:15.519Z,10.39
2022-12-11T14:52:43.735Z,10.42
2022-12-11T14:55:18.267Z,10.32
2022-12-11T14:57:45.955Z,10.57
2022-12-11T15:00:38.169Z,10.87
2022-12-11T15:03:23.290Z,10.81
2022-12-11T15:05:55.017Z,10.66
2022-12-11T15:08:32.514Z,10.69
2022-12-11T15:11:12.245Z,10.70
2022-12-11T15:13:55.060Z,10.63
2022-12-11T15:16:22.403Z,10.60
2022-12-11T15:18:53.487Z,10.75
2022-12-11T15:21:20.314Z,10.72
2022-12-11T15:23:54.812Z,10.95
2022-12-11T15:26:21.763Z,10.71
2022-12-11T15:28:48.536Z,10.58
2022-12-11T15:31:27.599Z,10.53
2022-12-11T15:33:54.236Z,10.60
2022-12-11T15:36:33.208Z,10.73
2022-12-11T15:38:59.868Z,10.53
2022-12-11T15:41:26.756Z,10.42
2022-12-11T16:45:54.514Z,7.76
2022-12-11T16:48:21.454Z,8.14
2022-12-11T16:50:48.043Z,7.96
2022-12-11T16:53:15.370Z,8.10
2022-12-11T16:55:42.509Z,8.03
2022-12-11T16:58:09.549Z,7.75
2022-12-11T17:00:36.113Z,7.69
2022-12-11T17:03:02.815Z,7.73
2022-12-11T17:05:29.371Z,7.42
2022-12-11T17:07:56.083Z,7.34
2022-12-11T17:10:22.901Z,7.33
2022-12-11T17:12:49.522Z,7.28
2022-12-11T17:15:16.144Z,7.20
2022-12-11T17:17:45.869Z,7.18
2022-12-11T17:20:12.629Z,7.16
2022-12-11T17:22:39.298Z,7.17
2022-12-11T17:25:06.182Z,7.03
2022-12-11T17:27:32.749Z,7.15
2022-12-11T17:29:59.435Z,7.32
2022-12-11T17:32:26.202Z,7.37
2022-12-11T17:34:52.820Z,7.45
2022-12-11T17:37:20.180Z,7.27
2022-12-11T17:53:30.388Z,7.03
2022-12-11T17:56:00.065Z,7.08
2022-12-11T17:58:27.010Z,6.93
2022-12-11T18:00:54.273Z,7.02
2022-12-11T18:03:21.235Z,7.06
2022-12-11T18:05:52.104Z,7.19
2022-12-11T18:08:21.637Z,7.12
2022-12-11T18:10:48.356Z,6.93
2022-12-11T18:13:14.980Z,6.87
2022-12-11T18:15:42.050Z,6.73
2022-12-11T18:18:08.917Z,6.76
2022-12-11T18:20:35.706Z,6.61
2022-12-11T18:23:02.519Z,6.56
2022-12-11T18:25:29.236Z,6.45
2022-12-11T18:27:56.040Z,6.54
2022-12-11T18:30:23.638Z,6.46
2022-12-11T18:32:50.789Z,6.45
2022-12-11T18:35:17.545Z,6.27
2022-12-11T18:37:44.320Z,6.23
2022-12-11T18:40:11.986Z,6.16
2022-12-11T18:42:38.665Z,6.22
2022-12-11T18:45:05.910Z,6.23
2022-12-11T18:47:32.539Z,6.14
2022-12-11T18:50:03.922Z,6.37
2022-12-11T18:52:33.942Z,6.23
2022-12-11T18:55:00.569Z,6.19
2022-12-11T18:57:27.214Z,6.11
2022-12-11T18:59:54.107Z,6.14
2022-12-11T19:02:21.076Z,6.15
2022-12-11T19:04:47.742Z,6.22
2022-12-11T19:07:14.461Z,5.96
2022-12-11T19:09:46.263Z,5.83
2022-12-11T19:12:14.754Z,5.77
2022-12-11T19:14:41.551Z,5.83
2022-12-11T19:17:08.155Z,5.96
2022-12-11T19:19:36.034Z,5.81
2022-12-11T19:22:02.764Z,5.71
2022-12-11T19:24:29.409Z,5.62
2022-12-11T19:26:56.019Z,5.58
2022-12-11T19:29:27.889Z,5.73
2022-12-11T19:31:55.642Z,5.59
2022-12-11T19:34:22.687Z,5.61
2022-12-11T19:36:49.480Z,5.58
2022-12-11T19:39:16.087Z,5.59
2022-12-11T19:41:42.886Z,5.40
2022-12-11T19:44:09.579Z,5.35
2022-12-11T19:46:36.326Z,5.09
2022-12-11T19:49:03.083Z,4.79
2022-12-11T19:51:38.656Z,4.62
2022-12-11T19:54:09.355Z,4.74
2022-12-11T19:56:36.166Z,4.83
2022-12-11T19:59:04.214Z,4.91
2022-12-11T20:01:32.122Z,4.92
2022-12-11T20:04:00.344Z,4.95
2022-12-11T20:06:31.374Z,4.92
2022-12-11T20:08:58.323Z,5.12
2022-12-11T20:11:25.005Z,5.16
2022-12-11T20:13:52.004Z,4.95
2022-12-11T20:16:28.862Z,5.12
2022-12-11T20:19:05.755Z,4.99
2022-12-11T20:21:32.521Z,4.96
2022-12-11T20:23:59.542Z,4.83
2022-12-11T20:26:26.335Z,4.81
2022-12-11T20:28:53.304Z,4.77
2022-12-11T20:31:23.310Z,4.99
2022-12-11T20:33:50.367Z,4.93
2022-12-11T20:36:17.643Z,4.79
2022-12-11T20:38:44.493Z,4.79
2022-12-11T20:41:15.808Z,4.77
2022-12-11T20:43:42.501Z,4.59
2022-12-11T20:46:10.025Z,4.85
2022-12-11T20:48:36.998Z,4.88
2022-12-11T20:51:04.068Z,4.70
2022-12-11T20:53:30.835Z,4.60
2022-12-11T20:55:57.491Z,4.57
2022-12-11T20:58:24.288Z,4.65
2022-12-11T21:00:51.058Z,4.66
2022-12-11T21:03:17.920Z,4.51
2022-12-11T21:05:45.200Z,4.43
2022-12-11T21:08:12.107Z,4.37
2022-12-11T21:10:42.677Z,4.52
2022-12-11T21:13:09.304Z,4.57
2022-12-11T21:15:37.180Z,4.69
2022-12-11T21:18:03.980Z,4.70
2022-12-11T21:20:30.557Z,4.66
2022-12-11T21:22:57.638Z,4.58
2022-12-11T21:25:25.020Z,4.52
2022-12-11T21:27:51.641Z,4.46
2022-12-11T21:30:18.453Z,4.28
2022-12-11T21:32:45.087Z,4.32
2022-12-11T21:35:12.054Z,4.20
2022-12-11T21:37:41.683Z,4.27
2022-12-11T21:40:09.233Z,4.08
2022-12-11T21:42:35.830Z,4.04
2022-12-11T21:47:50.209Z,3.97
2022-12-11T21:50:17.099Z,3.94
2022-12-11T21:52:44.118Z,3.93
2022-12-11T21:55:11.666Z,3.84
2022-12-11T21:57:38.594Z,3.95
2022-12-11T22:00:05.933Z,3.95
2022-12-11T22:02:37.480Z,3.90
2022-12-11T22:05:07.651Z,3.87
2022-12-11T22:07:34.256Z,3.78
2022-12-11T22:10:00.933Z,3.78
2022-12-11T22:12:28.035Z,3.54
2022-12-11T22:14:54.655Z,3.59
2022-12-11T22:17:21.498Z,3.58
2022-12-11T22:19:48.265Z,3.57
2022-12-11T22:22:14.954Z,3.55
2022-12-11T22:24:41.686Z,3.65
2022-12-11T22:27:08.346Z,3.68
2022-12-11T22:29:35.580Z,3.51
2022-12-11T22:32:02.237Z,3.58
2022-12-11T22:34:28.994Z,3.64
2022-12-11T22:36:56.298Z,3.45
2022-12-11T22:39:23.192Z,3.38
2022-12-11T22:41:49.868Z,3.38
2022-12-11T22:44:18.428Z,3.39
2022-12-11T22:46:49.721Z,3.84
2022-12-11T22:49:17.631Z,3.92
2022-12-11T22:51:44.246Z,3.79
2022-12-11T22:54:11.414Z,3.83
2022-12-11T22:56:38.330Z,3.69
2022-12-11T22:59:04.957Z,3.71
2022-12-11T23:01:31.891Z,3.59
2022-12-11T23:03:58.627Z,3.59
2022-12-11T23:06:25.390Z,3.26
2022-12-11T23:08:53.014Z,3.42
2022-12-11T23:11:24.860Z,3.11
2022-12-11T23:13:51.985Z,3.07
2022-12-11T23:16:18.683Z,2.58
2022-12-11T23:18:45.441Z,2.66
2022-12-11T23:21:12.088Z,2.70
2022-12-11T23:23:38.795Z,2.97
2022-12-11T23:26:05.913Z,3.28
2022-12-11T23:28:32.494Z,3.26
2022-12-11T23:30:59.203Z,3.52
2022-12-11T23:33:26.048Z,3.49
2022-12-11T23:35:52.774Z,3.55
2022-12-11T23:38:19.448Z,3.57
2022-12-11T23:40:46.106Z,3.50
2022-12-11T23:43:12.702Z,3.49
2022-12-11T23:45:39.376Z,3.24
2022-12-11T23:48:06.073Z,3.26
2022-12-11T23:50:33.047Z,3.56
2022-12-11T23:52:59.656Z,3.32
2022-12-11T23:55:27.417Z,3.26
2022-12-11T23:57:54.135Z,3.21
